createdAt,value
2019-03-21T00:01:53.585Z,64.03
2019-03-21T00:04:19.846Z,64.60
2019-03-21T00:06:47.717Z,63.70
2019-03-21T00:09:16.471Z,69.23
2019-03-21T00:12:00.567Z,68.60
2019-03-21T00:14:42.701Z,72.20
2019-03-21T00:17:18.696Z,73.20
2019-03-21T00:19:45.008Z,74.30
2019-03-21T00:22:11.412Z,76.27
2019-03-21T00:24:38.018Z,77.80
2019-03-21T00:27:04.609Z,72.53
2019-03-21T00:29:32.851Z,78.13
2019-03-21T00:31:59.120Z,70.73
2019-03-21T00:34:25.505Z,72.47
2019-03-21T00:36:51.915Z,70.30
2019-03-21T00:39:18.312Z,75.07
2019-03-21T00:41:44.702Z,76.53
2019-03-21T00:44:18.102Z,74.57
2019-03-21T00:46:39.485Z,74.10
2019-03-21T00:49:05.894Z,79.70
2019-03-21T00:51:32.399Z,73.00
2019-03-21T00:53:58.714Z,69.63
2019-03-21T00:56:25.004Z,77.43
2019-03-21T00:58:51.273Z,80.10
2019-03-21T01:01:17.653Z,79.37
2019-03-21T01:03:44.267Z,72.13
2019-03-21T01:06:10.533Z,73.93
2019-03-21T01:08:36.859Z,78.77
2019-03-21T01:11:03.874Z,79.17
2019-03-21T01:13:33.250Z,72.53
2019-03-21T01:15:59.928Z,78.27
2019-03-21T01:18:26.276Z,66.87
2019-03-21T01:20:52.548Z,78.30
2019-03-21T01:23:18.921Z,73.23
2019-03-21T01:25:51.770Z,74.47
2019-03-21T01:28:18.157Z,71.93
2019-03-21T01:30:44.609Z,72.40
2019-03-21T01:33:11.383Z,70.70
2019-03-21T01:35:38.904Z,68.93
2019-03-21T01:38:06.465Z,72.03
2019-03-21T01:40:41.959Z,61.93
2019-03-21T01:43:08.419Z,63.63
2019-03-21T01:45:34.792Z,75.77
2019-03-21T01:48:01.233Z,72.63
2019-03-21T01:50:32.506Z,70.60
2019-03-21T01:52:58.888Z,68.40
2019-03-21T01:55:25.192Z,70.00
2019-03-21T01:57:51.504Z,65.07
2019-03-21T02:00:27.327Z,64.17
2019-03-21T02:02:55.704Z,73.77
2019-03-21T02:05:22.030Z,65.20
2019-03-21T02:07:48.725Z,63.37
2019-03-21T02:10:16.246Z,64.77
2019-03-21T02:12:42.558Z,68.97
2019-03-21T02:15:11.735Z,58.00
2019-03-21T02:17:38.349Z,64.10
2019-03-21T02:20:14.351Z,64.50
2019-03-21T02:22:40.631Z,63.43
2019-03-21T02:25:10.742Z,58.37
2019-03-21T02:27:37.176Z,66.97
2019-03-21T02:30:18.666Z,73.33
2019-03-21T02:32:46.427Z,62.10
2019-03-21T02:35:12.874Z,67.50
2019-03-21T02:37:39.277Z,58.50
2019-03-21T02:40:18.858Z,60.87
2019-03-21T02:42:48.706Z,62.13
2019-03-21T02:45:15.616Z,57.70
2019-03-21T02:47:41.898Z,60.93
2019-03-21T02:50:15.011Z,60.60
2019-03-21T02:53:01.525Z,57.40
2019-03-21T02:55:27.774Z,57.77
2019-03-21T02:57:54.044Z,58.73
2019-03-21T03:00:37.986Z,59.87
2019-03-21T03:03:05.652Z,63.77
2019-03-21T03:05:33.360Z,54.07
2019-03-21T03:07:59.653Z,58.53
2019-03-21T03:10:35.095Z,54.03
2019-03-21T03:13:01.470Z,56.83
2019-03-21T03:15:33.109Z,57.67
2019-03-21T03:18:00.463Z,60.53
2019-03-21T03:20:26.701Z,51.90
2019-03-21T03:22:53.167Z,54.83
2019-03-21T03:25:19.889Z,63.27
2019-03-21T03:27:49.741Z,57.63
2019-03-21T03:30:18.903Z,60.00
2019-03-21T03:32:45.146Z,57.37
2019-03-21T03:35:12.371Z,53.87
2019-03-21T03:37:39.409Z,53.40
2019-03-21T03:40:12.283Z,52.13
2019-03-21T03:42:38.616Z,66.60
2019-03-21T03:45:11.510Z,57.03
2019-03-21T03:47:37.732Z,55.17
2019-03-21T03:50:07.825Z,61.80
2019-03-21T03:52:34.056Z,60.20
2019-03-21T03:55:00.544Z,60.30
2019-03-21T03:57:27.132Z,58.33
2019-03-21T03:59:53.499Z,53.27
2019-03-21T04:02:19.847Z,61.33
2019-03-21T04:04:46.094Z,58.00
2019-03-21T04:07:12.468Z,59.97
2019-03-21T04:09:39.943Z,55.00
2019-03-21T04:12:06.565Z,59.50
2019-03-21T04:14:32.790Z,57.77
2019-03-21T04:16:59.056Z,61.90
2019-03-21T04:19:25.736Z,65.20
2019-03-21T04:21:52.007Z,57.50
2019-03-21T04:24:18.217Z,59.73
2019-03-21T04:26:44.593Z,57.67
2019-03-21T04:29:10.811Z,55.07
2019-03-21T04:31:37.060Z,51.20
2019-03-21T04:34:07.106Z,60.50
2019-03-21T04:36:33.348Z,62.63
2019-03-21T04:38:59.631Z,52.07
2019-03-21T04:41:26.046Z,54.93
2019-03-21T04:43:52.290Z,51.70
2019-03-21T04:46:18.724Z,50.13
2019-03-21T04:48:44.969Z,46.80
2019-03-21T04:51:11.192Z,46.87
2019-03-21T04:53:37.463Z,47.77
2019-03-21T04:56:03.693Z,53.27
2019-03-21T04:58:29.944Z,48.57
2019-03-21T05:00:57.080Z,47.60
2019-03-21T05:03:26.043Z,49.40
2019-03-21T05:05:52.277Z,44.90
2019-03-21T05:08:18.520Z,42.50
2019-03-21T05:10:45.043Z,43.90
2019-03-21T05:13:11.292Z,43.63
2019-03-21T05:15:43.598Z,46.57
2019-03-21T05:18:13.093Z,40.80
2019-03-21T05:20:39.320Z,42.30
2019-03-21T05:23:05.570Z,44.80
2019-03-21T05:25:31.799Z,45.87
2019-03-21T05:27:58.152Z,48.37
2019-03-21T05:30:28.220Z,44.23
2019-03-21T05:32:54.480Z,42.83
2019-03-21T05:35:20.707Z,42.10
2019-03-21T05:37:46.984Z,49.83
2019-03-21T05:40:15.722Z,42.77
2019-03-21T05:42:45.781Z,48.80
2019-03-21T05:45:16.557Z,55.90
2019-03-21T05:47:42.817Z,47.43
2019-03-21T05:50:14.964Z,42.17
2019-03-21T05:53:01.060Z,49.00
2019-03-21T05:55:27.291Z,49.43
2019-03-21T05:57:53.528Z,46.40
2019-03-21T06:00:44.455Z,45.47
2019-03-21T06:03:14.374Z,47.50
2019-03-21T06:05:44.446Z,56.97
2019-03-21T06:08:14.176Z,48.40
2019-03-21T06:10:40.431Z,52.33
2019-03-21T06:13:06.656Z,51.10
2019-03-21T06:15:38.839Z,48.23
2019-03-21T06:18:20.825Z,55.20
2019-03-21T06:20:56.211Z,48.13
2019-03-21T06:23:47.357Z,54.50
2019-03-21T06:26:23.049Z,43.03
2019-03-21T06:28:49.260Z,41.90
2019-03-21T06:31:15.516Z,43.40
2019-03-21T06:33:41.737Z,48.97
2019-03-21T06:36:08.281Z,50.77
2019-03-21T06:38:35.776Z,46.90
2019-03-21T06:41:02.046Z,42.80
2019-03-21T06:43:28.253Z,46.80
2019-03-21T06:45:54.487Z,49.97
2019-03-21T06:48:20.752Z,48.30
2019-03-21T06:50:46.981Z,49.90
2019-03-21T06:53:13.269Z,46.20
2019-03-21T06:55:39.484Z,47.27
2019-03-21T06:58:05.745Z,45.70
2019-03-21T07:00:32.046Z,43.17
2019-03-21T07:02:58.396Z,44.97
2019-03-21T07:05:26.645Z,38.73
2019-03-21T07:07:52.798Z,38.17
2019-03-21T07:10:19.118Z,38.93
2019-03-21T07:12:45.609Z,33.13
2019-03-21T07:15:12.085Z,39.20
2019-03-21T07:17:38.321Z,39.63
2019-03-21T07:20:06.984Z,34.80
2019-03-21T07:22:33.213Z,36.23
2019-03-21T07:24:59.476Z,38.47
2019-03-21T07:27:26.044Z,39.40
2019-03-21T07:29:52.305Z,36.77
2019-03-21T07:32:18.972Z,39.30
2019-03-21T07:34:45.295Z,35.63
2019-03-21T07:37:11.581Z,35.50
2019-03-21T07:39:37.810Z,36.47
2019-03-21T07:42:05.164Z,37.60
2019-03-21T07:44:31.795Z,39.07
2019-03-21T07:46:58.021Z,37.77
2019-03-21T07:49:24.270Z,37.17
2019-03-21T07:51:50.515Z,36.90
2019-03-21T07:54:16.742Z,38.63
2019-03-21T07:56:43.003Z,39.63
2019-03-21T07:59:09.258Z,37.33
2019-03-21T08:01:35.808Z,41.97
2019-03-21T08:04:03.164Z,43.03
2019-03-21T08:06:29.609Z,42.17
2019-03-21T08:08:55.861Z,41.80
2019-03-21T08:11:22.108Z,42.10
2019-03-21T08:13:48.337Z,37.80
2019-03-21T08:16:14.616Z,41.83
2019-03-21T08:18:41.144Z,39.83
2019-03-21T08:21:07.379Z,39.63
2019-03-21T08:23:33.905Z,45.63
2019-03-21T08:26:00.390Z,37.93
2019-03-21T08:28:26.750Z,36.60
2019-03-21T08:31:05.832Z,40.33
2019-03-21T08:33:32.158Z,34.60
2019-03-21T08:35:58.780Z,34.00
2019-03-21T08:38:25.044Z,28.50
2019-03-21T08:40:51.325Z,27.33
2019-03-21T08:43:17.566Z,27.27
2019-03-21T08:45:43.796Z,29.00
2019-03-21T08:48:10.058Z,25.43
2019-03-21T08:50:36.321Z,28.33
2019-03-21T08:53:02.557Z,28.00
2019-03-21T08:55:28.828Z,29.73
2019-03-21T08:57:55.074Z,22.93
2019-03-21T09:00:21.679Z,21.07
2019-03-21T09:02:47.920Z,25.50
2019-03-21T09:05:14.144Z,27.33
2019-03-21T09:07:40.688Z,24.67
2019-03-21T09:10:09.133Z,21.93
2019-03-21T09:12:35.599Z,22.73
2019-03-21T09:15:02.256Z,23.63
2019-03-21T09:17:28.501Z,24.03
2019-03-21T09:19:54.728Z,23.83
2019-03-21T09:22:21.016Z,23.13
2019-03-21T09:24:47.250Z,23.07
2019-03-21T09:27:13.902Z,18.97
2019-03-21T09:29:40.120Z,25.75
2019-03-21T09:32:06.409Z,24.10
2019-03-21T09:34:32.639Z,27.50
2019-03-21T09:36:59.211Z,23.47
2019-03-21T09:39:25.863Z,21.97
2019-03-21T09:41:52.120Z,21.97
2019-03-21T09:44:26.532Z,24.27
2019-03-21T09:47:01.894Z,22.10
2019-03-21T09:49:28.115Z,25.60
2019-03-21T09:51:54.447Z,24.27
2019-03-21T09:54:20.710Z,31.03
2019-03-21T09:56:46.923Z,23.10
2019-03-21T09:59:13.186Z,21.90
2019-03-21T10:01:39.433Z,20.07
2019-03-21T10:04:05.739Z,23.13
2019-03-21T10:06:32.040Z,21.47
2019-03-21T10:08:58.269Z,23.50
2019-03-21T10:11:24.840Z,26.07
2019-03-21T10:13:51.107Z,24.15
2019-03-21T10:16:17.419Z,23.50
2019-03-21T10:18:43.677Z,20.70
2019-03-21T10:21:10.048Z,22.57
2019-03-21T10:23:36.288Z,24.87
2019-03-21T10:26:02.717Z,23.43
2019-03-21T10:28:28.968Z,20.17
2019-03-21T10:30:57.201Z,24.00
2019-03-21T10:33:23.280Z,24.43
2019-03-21T10:35:49.489Z,23.83
2019-03-21T10:38:15.724Z,28.00
2019-03-21T10:40:42.183Z,23.10
2019-03-21T10:43:10.387Z,23.97
2019-03-21T10:45:37.200Z,26.93
2019-03-21T10:48:03.922Z,24.10
2019-03-21T10:50:40.007Z,21.82
2019-03-21T10:53:07.344Z,22.37
2019-03-21T10:55:33.776Z,26.02
2019-03-21T10:58:00.124Z,24.37
2019-03-21T11:00:26.844Z,23.90
2019-03-21T11:02:53.264Z,29.10
2019-03-21T11:05:19.614Z,26.97
2019-03-21T11:07:45.848Z,25.27
2019-03-21T11:10:12.575Z,22.77
2019-03-21T11:12:38.865Z,24.27
2019-03-21T11:15:05.311Z,25.17
2019-03-21T11:17:32.405Z,24.73
2019-03-21T11:19:59.128Z,25.00
2019-03-21T11:22:25.389Z,23.00
2019-03-21T11:25:11.506Z,25.97
2019-03-21T11:27:38.089Z,25.47
2019-03-21T11:30:15.723Z,27.07
2019-03-21T11:32:53.466Z,26.30
2019-03-21T11:35:20.056Z,24.87
2019-03-21T11:37:46.645Z,28.10
2019-03-21T11:40:12.936Z,23.83
2019-03-21T11:42:39.184Z,24.60
2019-03-21T11:45:06.230Z,23.60
2019-03-21T11:47:41.373Z,27.00
2019-03-21T11:50:20.402Z,22.70
2019-03-21T11:52:46.976Z,23.57
2019-03-21T11:55:13.368Z,22.90
2019-03-21T11:57:39.715Z,21.50
2019-03-21T12:00:08.502Z,22.57
2019-03-21T12:02:34.695Z,22.20
2019-03-21T12:05:00.982Z,22.70
2019-03-21T12:07:27.527Z,23.00
2019-03-21T12:09:53.813Z,22.23
2019-03-21T12:12:20.381Z,26.97
2019-03-21T12:14:46.724Z,21.60
2019-03-21T12:17:13.055Z,23.90
2019-03-21T12:19:39.416Z,21.57
2019-03-21T12:22:05.651Z,21.93
2019-03-21T12:24:31.889Z,18.40
2019-03-21T12:26:58.140Z,17.53
2019-03-21T12:29:24.504Z,20.93
2019-03-21T12:31:50.911Z,18.40
2019-03-21T12:34:17.179Z,18.77
2019-03-21T12:36:43.379Z,17.73
2019-03-21T12:39:09.757Z,16.37
2019-03-21T12:41:35.990Z,15.70
2019-03-21T12:44:05.037Z,18.57
2019-03-21T12:46:31.259Z,18.20
2019-03-21T12:48:57.610Z,20.10
2019-03-21T12:51:23.840Z,18.57
2019-03-21T12:53:50.104Z,17.50
2019-03-21T12:56:16.557Z,16.50
2019-03-21T12:58:42.866Z,17.37
2019-03-21T13:01:09.086Z,18.83
2019-03-21T13:03:35.492Z,16.63
2019-03-21T13:06:01.730Z,17.80
2019-03-21T13:08:33.790Z,20.93
2019-03-21T13:10:56.026Z,15.67
2019-03-21T13:13:22.253Z,18.70
2019-03-21T13:15:48.490Z,18.60
2019-03-21T13:18:14.745Z,19.73
2019-03-21T13:20:41.001Z,20.47
2019-03-21T13:23:07.542Z,19.27
2019-03-21T13:25:34.038Z,17.37
2019-03-21T13:28:00.272Z,16.80
2019-03-21T13:30:27.069Z,17.40
2019-03-21T13:32:53.490Z,22.57
2019-03-21T13:35:31.682Z,18.87
2019-03-21T13:37:47.871Z,18.30
2019-03-21T13:40:14.421Z,16.47
2019-03-21T13:42:40.679Z,16.80
2019-03-21T13:45:07.420Z,18.17
2019-03-21T13:47:34.052Z,21.33
2019-03-21T13:50:00.353Z,20.10
2019-03-21T13:52:26.615Z,19.07
2019-03-21T13:54:52.881Z,19.70
2019-03-21T13:57:22.794Z,20.57
2019-03-21T13:59:52.575Z,19.87
2019-03-21T14:02:19.342Z,19.97
2019-03-21T14:04:46.082Z,19.67
2019-03-21T14:07:12.378Z,18.10
2019-03-21T14:09:39.049Z,19.80
2019-03-21T14:12:05.507Z,19.27
2019-03-21T14:14:32.146Z,20.03
2019-03-21T14:16:58.519Z,24.53
2019-03-21T14:19:24.916Z,20.40
2019-03-21T14:21:51.214Z,17.93
2019-03-21T14:24:17.542Z,21.77
2019-03-21T14:26:43.916Z,18.57
2019-03-21T14:29:12.852Z,18.73
2019-03-21T14:31:38.753Z,21.23
2019-03-21T14:34:05.125Z,21.13
2019-03-21T14:36:31.645Z,21.40
2019-03-21T14:38:58.286Z,21.00
2019-03-21T14:41:24.625Z,21.20
2019-03-21T14:43:51.446Z,21.43
2019-03-21T14:46:18.263Z,20.48
2019-03-21T14:48:45.234Z,19.00
2019-03-21T14:51:11.859Z,19.60
2019-03-21T14:53:38.481Z,19.73
2019-03-21T14:56:04.792Z,20.33
2019-03-21T14:58:31.529Z,19.00
2019-03-21T15:00:58.145Z,18.07
2019-03-21T15:03:24.451Z,17.87
2019-03-21T15:05:50.871Z,18.40
2019-03-21T15:08:17.361Z,17.70
2019-03-21T15:10:43.704Z,18.93
2019-03-21T15:13:10.620Z,22.17
2019-03-21T15:15:37.082Z,19.47
2019-03-21T15:18:03.312Z,23.47
2019-03-21T15:20:29.821Z,18.20
2019-03-21T15:22:57.084Z,20.13
2019-03-21T15:25:23.826Z,22.03
2019-03-21T15:27:50.509Z,19.90
2019-03-21T15:30:19.209Z,17.40
2019-03-21T15:32:46.265Z,22.57
2019-03-21T15:35:14.612Z,20.47
2019-03-21T15:37:40.934Z,26.53
2019-03-21T15:40:10.070Z,23.17
2019-03-21T15:42:36.885Z,20.60
2019-03-21T15:45:22.052Z,22.70
2019-03-21T15:47:41.324Z,22.00
2019-03-21T15:50:37.806Z,23.60
2019-03-21T15:53:04.950Z,26.10
2019-03-21T15:55:31.666Z,26.13
2019-03-21T15:57:57.982Z,26.57
2019-03-21T16:00:32.779Z,21.23
2019-03-21T16:02:59.123Z,24.43
2019-03-21T16:05:25.738Z,22.70
2019-03-21T16:07:51.997Z,21.50
2019-03-21T16:10:18.656Z,25.03
2019-03-21T16:12:45.089Z,23.43
2019-03-21T16:15:11.804Z,22.07
2019-03-21T16:17:38.050Z,24.97
2019-03-21T16:20:06.227Z,21.17
2019-03-21T16:22:32.427Z,23.40
2019-03-21T16:24:58.655Z,23.37
2019-03-21T16:27:24.898Z,25.23
2019-03-21T16:29:51.115Z,19.87
2019-03-21T16:32:17.360Z,22.60
2019-03-21T16:34:43.580Z,18.97
2019-03-21T16:37:11.919Z,19.23
2019-03-21T16:39:37.876Z,19.73
2019-03-21T16:42:04.128Z,20.70
2019-03-21T16:44:30.696Z,23.47
2019-03-21T16:46:56.915Z,22.10
2019-03-21T16:49:23.175Z,21.50
2019-03-21T16:51:49.438Z,24.50
2019-03-21T16:54:17.259Z,21.50
2019-03-21T16:56:44.252Z,19.47
2019-03-21T16:59:10.838Z,24.33
2019-03-21T17:01:37.367Z,21.07
2019-03-21T17:04:03.644Z,24.20
2019-03-21T17:06:29.853Z,23.00
2019-03-21T17:08:56.066Z,22.07
2019-03-21T17:11:22.357Z,25.80
2019-03-21T17:13:48.546Z,26.33
2019-03-21T17:16:15.159Z,22.73
2019-03-21T17:18:41.533Z,22.80
2019-03-21T17:21:09.562Z,30.33
2019-03-21T17:23:36.112Z,27.43
2019-03-21T17:26:02.474Z,21.37
2019-03-21T17:28:28.692Z,21.70
2019-03-21T17:30:54.943Z,23.53
2019-03-21T17:33:21.176Z,21.17
2019-03-21T17:35:47.951Z,20.10
2019-03-21T17:38:14.188Z,21.30
2019-03-21T17:40:40.828Z,22.30
2019-03-21T17:43:07.359Z,22.40
2019-03-21T17:45:33.611Z,23.23
2019-03-21T17:47:59.831Z,20.97
2019-03-21T17:50:26.352Z,25.50
2019-03-21T17:52:52.890Z,23.97
2019-03-21T17:55:19.103Z,25.80
2019-03-21T17:57:45.365Z,22.33
2019-03-21T18:00:21.188Z,26.30
2019-03-21T18:02:47.556Z,28.77
2019-03-21T18:05:15.188Z,28.33
2019-03-21T18:07:41.431Z,27.27
2019-03-21T18:10:28.615Z,30.70
2019-03-21T18:12:55.135Z,27.23
2019-03-21T18:15:21.403Z,34.33
2019-03-21T18:17:47.628Z,27.53
2019-03-21T18:20:14.048Z,26.27
2019-03-21T18:22:40.293Z,25.47
2019-03-21T18:25:06.812Z,28.50
2019-03-21T18:27:33.210Z,30.00
2019-03-21T18:29:59.427Z,33.10
2019-03-21T18:32:25.848Z,28.83
2019-03-21T18:34:52.467Z,27.80
2019-03-21T18:37:19.007Z,26.40
2019-03-21T18:39:45.661Z,25.70
2019-03-21T18:42:12.276Z,26.20
2019-03-21T18:44:38.504Z,28.63
2019-03-21T18:47:04.960Z,25.70
2019-03-21T18:49:31.187Z,26.23
2019-03-21T18:51:57.425Z,26.00
2019-03-21T18:54:23.655Z,31.67
2019-03-21T18:56:50.368Z,27.97
2019-03-21T18:59:16.587Z,44.13
2019-03-21T19:01:42.852Z,37.87
2019-03-21T19:04:09.075Z,37.57
2019-03-21T19:06:35.300Z,33.27
2019-03-21T19:09:01.556Z,32.47
2019-03-21T19:11:27.832Z,37.40
2019-03-21T19:13:54.088Z,30.47
2019-03-21T19:16:20.315Z,31.67
2019-03-21T19:18:46.539Z,27.77
2019-03-21T19:21:13.059Z,31.67
2019-03-21T19:23:39.404Z,27.90
2019-03-21T19:26:05.620Z,30.57
2019-03-21T19:28:31.892Z,30.03
2019-03-21T19:30:58.105Z,30.10
2019-03-21T19:33:24.632Z,27.40
2019-03-21T19:35:51.156Z,27.70
2019-03-21T19:38:17.403Z,26.70
2019-03-21T19:40:43.688Z,28.63
2019-03-21T19:43:09.892Z,28.27
2019-03-21T19:45:36.488Z,28.20
2019-03-21T19:48:02.729Z,29.43
2019-03-21T19:50:28.988Z,33.67
2019-03-21T19:52:55.325Z,29.33
2019-03-21T19:55:30.883Z,28.50
2019-03-21T19:57:49.577Z,28.73
2019-03-21T20:00:20.431Z,30.37
2019-03-21T20:02:47.087Z,31.10
2019-03-21T20:05:13.853Z,28.73
2019-03-21T20:07:40.096Z,32.13
2019-03-21T20:10:08.341Z,30.63
2019-03-21T20:12:34.983Z,30.40
2019-03-21T20:15:01.209Z,29.30
2019-03-21T20:17:27.488Z,31.40
2019-03-21T20:19:53.727Z,35.50
2019-03-21T20:22:20.041Z,31.93
2019-03-21T20:24:46.356Z,32.00
2019-03-21T20:27:12.602Z,32.90
2019-03-21T20:29:39.146Z,27.87
2019-03-21T20:32:05.391Z,31.27
2019-03-21T20:34:31.648Z,31.50
2019-03-21T20:36:57.837Z,30.77
2019-03-21T20:39:24.075Z,34.30
2019-03-21T20:41:50.335Z,33.93
2019-03-21T20:44:16.602Z,33.20
2019-03-21T20:46:42.818Z,32.53
2019-03-21T20:49:09.232Z,28.13
2019-03-21T20:51:35.451Z,29.10
2019-03-21T20:54:01.671Z,30.37
2019-03-21T20:56:27.918Z,30.67
2019-03-21T20:58:54.507Z,30.23
2019-03-21T21:01:20.761Z,31.43
2019-03-21T21:03:47.046Z,28.17
2019-03-21T21:06:13.287Z,30.33
2019-03-21T21:08:39.520Z,28.13
2019-03-21T21:11:07.047Z,28.30
2019-03-21T21:13:33.215Z,27.57
2019-03-21T21:15:59.474Z,30.13
2019-03-21T21:18:25.724Z,30.47
2019-03-21T21:20:51.963Z,30.23
2019-03-21T21:23:18.530Z,30.40
2019-03-21T21:25:44.768Z,30.03
2019-03-21T21:28:11.039Z,28.53
2019-03-21T21:30:37.243Z,27.83
2019-03-21T21:33:03.756Z,28.27
2019-03-21T21:35:30.045Z,27.77
2019-03-21T21:37:56.267Z,28.53
2019-03-21T21:40:22.520Z,39.27
2019-03-21T21:42:48.756Z,70.37
2019-03-21T21:45:16.011Z,106.80
2019-03-21T21:47:42.871Z,56.70
2019-03-21T21:50:12.420Z,40.47
2019-03-21T21:52:42.289Z,38.43
2019-03-21T21:55:07.268Z,31.97
2019-03-21T21:57:33.932Z,35.87
2019-03-21T22:00:00.314Z,34.57
2019-03-21T22:02:26.735Z,35.50
2019-03-21T22:04:52.997Z,34.27
2019-03-21T22:07:19.568Z,37.87
2019-03-21T22:09:45.811Z,38.50
2019-03-21T22:12:12.037Z,42.63
2019-03-21T22:14:38.287Z,36.67
2019-03-21T22:17:04.524Z,33.77
2019-03-21T22:19:30.772Z,33.93
2019-03-21T22:21:56.983Z,35.00
2019-03-21T22:24:23.229Z,35.20
2019-03-21T22:26:49.451Z,38.53
2019-03-21T22:29:15.700Z,34.33
2019-03-21T22:31:41.923Z,34.40
2019-03-21T22:34:08.156Z,36.30
2019-03-21T22:36:34.403Z,36.20
2019-03-21T22:39:00.615Z,32.30
2019-03-21T22:41:26.906Z,35.37
2019-03-21T22:43:53.128Z,31.30
2019-03-21T22:46:19.359Z,28.20
2019-03-21T22:48:45.959Z,30.77
2019-03-21T22:51:12.500Z,29.00
2019-03-21T22:53:39.067Z,27.07
2019-03-21T22:56:05.396Z,28.00
2019-03-21T22:58:32.106Z,28.73
2019-03-21T23:00:58.668Z,26.37
2019-03-21T23:03:24.910Z,29.00
2019-03-21T23:05:51.128Z,30.97
2019-03-21T23:08:17.395Z,31.87
2019-03-21T23:10:45.103Z,30.73
2019-03-21T23:13:11.836Z,30.93
2019-03-21T23:15:38.372Z,34.33
2019-03-21T23:18:04.699Z,28.93
2019-03-21T23:20:30.943Z,31.93
2019-03-21T23:22:57.155Z,29.67
2019-03-21T23:25:23.400Z,32.67
2019-03-21T23:27:49.616Z,32.67
2019-03-21T23:30:17.068Z,37.50
2019-03-21T23:32:43.714Z,35.10
2019-03-21T23:35:10.369Z,32.50
2019-03-21T23:37:36.703Z,33.20
2019-03-21T23:40:11.407Z,36.13
2019-03-21T23:42:37.642Z,36.23
2019-03-21T23:45:08.575Z,35.30
2019-03-21T23:47:34.796Z,33.73
2019-03-21T23:50:01.557Z,34.57
2019-03-21T23:52:28.080Z,32.83
2019-03-21T23:54:54.309Z,37.07
2019-03-21T23:57:20.554Z,41.47
2019-03-21T23:59:47.082Z,31.90
